createdAt,value
2017-05-11T00:00:51.040Z,7.40
2017-05-11T00:03:20.131Z,7.40
2017-05-11T00:05:50.226Z,7.40
2017-05-11T00:08:20.023Z,7.40
2017-05-11T00:10:49.846Z,7.40
2017-05-11T00:13:19.671Z,7.30
2017-05-11T00:15:48.728Z,7.30
2017-05-11T00:18:17.798Z,7.30
2017-05-11T00:20:46.859Z,7.30
2017-05-11T00:23:15.943Z,7.30
2017-05-11T00:25:45.736Z,7.20
2017-05-11T00:28:14.798Z,7.30
2017-05-11T00:30:43.831Z,7.20
2017-05-11T00:33:13.059Z,7.20
2017-05-11T00:35:42.129Z,7.20
2017-05-11T00:38:12.063Z,7.10
2017-05-11T00:40:41.120Z,7.20
2017-05-11T00:43:10.206Z,7.10
2017-05-11T00:45:39.322Z,7.20
2017-05-11T00:48:08.359Z,7.10
2017-05-11T00:50:37.450Z,7.10
2017-05-11T00:53:06.496Z,7.10
2017-05-11T00:55:36.331Z,7.00
2017-05-11T00:58:05.399Z,7.10
2017-05-11T01:00:34.490Z,7.00
2017-05-11T01:03:03.540Z,7.00
2017-05-11T01:05:33.011Z,7.00
2017-05-11T01:08:02.066Z,7.00
2017-05-11T01:10:31.132Z,6.90
2017-05-11T01:13:00.231Z,6.90
2017-05-11T01:15:29.282Z,6.90
2017-05-11T01:17:58.383Z,6.90
2017-05-11T01:20:28.179Z,6.80
2017-05-11T01:23:04.047Z,6.70
2017-05-11T01:25:33.876Z,6.70
2017-05-11T01:28:03.147Z,6.80
2017-05-11T01:30:32.961Z,6.70
2017-05-11T01:33:02.778Z,6.70
2017-05-11T01:35:32.603Z,6.70
2017-05-11T01:38:01.710Z,6.70
2017-05-11T01:40:30.800Z,6.70
2017-05-11T01:42:59.870Z,6.70
2017-05-11T01:45:29.799Z,6.60
2017-05-11T01:47:58.862Z,6.70
2017-05-11T01:50:28.672Z,6.60
2017-05-11T01:52:57.785Z,6.60
2017-05-11T01:55:26.862Z,6.60
2017-05-11T01:57:56.701Z,6.50
2017-05-11T02:00:25.927Z,6.60
2017-05-11T02:02:55.013Z,6.60
2017-05-11T02:05:24.058Z,6.50
2017-05-11T02:07:53.291Z,6.60
2017-05-11T02:10:22.351Z,6.50
2017-05-11T02:12:51.410Z,6.50
2017-05-11T02:15:20.501Z,6.50
2017-05-11T02:17:49.547Z,6.40
2017-05-11T02:20:18.643Z,6.40
2017-05-11T02:22:47.722Z,6.40
2017-05-11T02:25:17.975Z,6.30
2017-05-11T02:27:47.039Z,6.30
2017-05-11T02:30:16.853Z,6.20
2017-05-11T02:32:45.931Z,6.20
2017-05-11T02:35:15.000Z,6.20
2017-05-11T02:37:44.092Z,6.20
2017-05-11T02:40:13.150Z,6.20
2017-05-11T02:42:42.455Z,6.10
2017-05-11T02:45:11.522Z,6.10
2017-05-11T02:47:40.574Z,6.10
2017-05-11T02:50:09.663Z,6.00
2017-05-11T02:52:38.711Z,6.00
2017-05-11T02:55:07.818Z,6.00
2017-05-11T02:57:36.937Z,5.90
2017-05-11T03:00:06.019Z,5.90
2017-05-11T03:02:35.081Z,5.90
2017-05-11T03:05:04.164Z,5.80
2017-05-11T03:07:33.203Z,5.80
2017-05-11T03:10:02.666Z,5.80
2017-05-11T03:12:31.726Z,5.80
2017-05-11T03:15:00.787Z,5.70
2017-05-11T03:17:29.890Z,5.70
2017-05-11T03:19:58.954Z,5.70
2017-05-11T03:22:28.786Z,5.70
2017-05-11T03:24:57.848Z,5.70
2017-05-11T03:27:27.186Z,5.70
2017-05-11T03:29:56.247Z,5.70
2017-05-11T03:32:26.073Z,5.60
2017-05-11T03:34:55.904Z,5.60
2017-05-11T03:37:25.691Z,5.60
2017-05-11T03:39:55.034Z,5.60
2017-05-11T03:42:24.078Z,5.60
2017-05-11T03:44:53.128Z,5.60
2017-05-11T03:47:22.210Z,5.60
2017-05-11T03:49:51.271Z,5.60
2017-05-11T03:52:21.086Z,5.50
2017-05-11T03:54:50.874Z,5.60
2017-05-11T03:57:20.063Z,5.60
2017-05-11T03:59:49.126Z,5.60
2017-05-11T04:02:18.187Z,5.60
2017-05-11T04:04:48.016Z,5.60
2017-05-11T04:07:17.062Z,5.70
2017-05-11T04:09:46.248Z,5.70
2017-05-11T04:12:16.086Z,5.60
2017-05-11T04:14:45.922Z,5.70
2017-05-11T04:17:15.731Z,5.70
2017-05-11T04:19:45.622Z,5.70
2017-05-11T04:22:15.047Z,5.90
2017-05-11T04:24:44.114Z,5.90
2017-05-11T04:27:13.163Z,5.90
2017-05-11T04:29:42.253Z,6.00
2017-05-11T04:32:11.323Z,6.00
2017-05-11T04:34:40.411Z,6.00
2017-05-11T04:37:10.224Z,6.00
2017-05-11T04:39:40.362Z,6.00
2017-05-11T04:42:09.402Z,6.20
2017-05-11T04:44:38.487Z,6.20
2017-05-11T04:47:07.569Z,6.20
2017-05-11T04:49:36.627Z,6.30
2017-05-11T04:52:06.449Z,6.30
2017-05-11T04:54:35.528Z,6.40
2017-05-11T04:57:05.451Z,6.40
2017-05-11T04:59:35.256Z,6.50
2017-05-11T05:02:05.082Z,6.50
2017-05-11T05:04:34.251Z,6.60
2017-05-11T05:07:03.309Z,6.60
2017-05-11T05:09:33.347Z,6.70
2017-05-11T05:12:02.419Z,6.80
2017-05-11T05:14:31.478Z,6.90
2017-05-11T05:17:00.584Z,6.90
2017-05-11T05:19:29.630Z,7.00
2017-05-11T05:21:58.819Z,7.10
2017-05-11T05:24:27.883Z,7.20
2017-05-11T05:26:56.971Z,7.30
2017-05-11T05:29:26.251Z,7.50
2017-05-11T05:31:55.315Z,7.60
2017-05-11T05:34:24.378Z,7.70
2017-05-11T05:36:53.457Z,7.80
2017-05-11T05:39:22.536Z,7.90
2017-05-11T05:41:51.631Z,8.00
2017-05-11T05:44:20.732Z,8.20
2017-05-11T05:46:49.795Z,8.30
2017-05-11T05:49:18.878Z,8.40
2017-05-11T05:51:48.686Z,8.50
2017-05-11T05:54:18.724Z,8.60
2017-05-11T05:56:49.231Z,8.70
2017-05-11T05:59:18.323Z,9.00
2017-05-11T06:01:48.215Z,9.00
2017-05-11T06:04:17.259Z,9.20
2017-05-11T06:06:46.442Z,9.20
2017-05-11T06:09:15.534Z,9.30
2017-05-11T06:11:45.327Z,9.30
2017-05-11T06:14:14.411Z,9.50
2017-05-11T06:16:43.492Z,9.70
2017-05-11T06:19:12.663Z,9.80
2017-05-11T06:21:41.750Z,9.90
2017-05-11T06:24:10.979Z,10.00
2017-05-11T06:26:40.078Z,10.20
2017-05-11T06:29:09.291Z,10.30
2017-05-11T06:31:39.316Z,10.40
2017-05-11T06:34:08.620Z,10.60
2017-05-11T06:36:37.733Z,10.70
2017-05-11T06:39:06.998Z,10.80
2017-05-11T06:41:36.046Z,10.90
2017-05-11T06:44:05.374Z,11.00
2017-05-11T06:46:34.428Z,11.00
2017-05-11T06:49:03.625Z,11.20
2017-05-11T06:51:32.840Z,11.30
2017-05-11T06:54:02.028Z,11.40
2017-05-11T06:56:31.097Z,11.60
2017-05-11T06:59:00.335Z,11.70
2017-05-11T07:01:29.411Z,11.80
2017-05-11T07:03:58.927Z,11.80
2017-05-11T07:06:28.001Z,11.90
2017-05-11T07:08:57.235Z,11.90
2017-05-11T07:11:26.355Z,12.00
2017-05-11T07:13:55.613Z,12.10
2017-05-11T07:16:25.047Z,12.10
2017-05-11T07:18:54.895Z,12.10
2017-05-11T07:21:24.712Z,12.20
2017-05-11T07:23:54.251Z,12.30
2017-05-11T07:26:23.307Z,12.40
2017-05-11T07:28:52.516Z,12.40
2017-05-11T07:31:21.643Z,12.50
2017-05-11T07:33:50.912Z,12.50
2017-05-11T07:36:20.144Z,12.60
2017-05-11T07:38:49.412Z,12.70
2017-05-11T07:41:18.542Z,12.60
2017-05-11T07:43:48.527Z,12.70
2017-05-11T07:46:17.623Z,12.80
2017-05-11T07:48:47.451Z,12.90
2017-05-11T07:51:16.527Z,12.90
2017-05-11T07:53:45.734Z,13.00
2017-05-11T07:56:15.022Z,13.10
2017-05-11T07:58:44.215Z,13.10
2017-05-11T08:01:13.274Z,13.20
2017-05-11T08:03:42.743Z,13.30
2017-05-11T08:06:11.853Z,13.40
2017-05-11T08:08:41.232Z,13.50
2017-05-11T08:11:10.324Z,13.60
2017-05-11T08:13:39.505Z,13.80
2017-05-11T08:16:08.716Z,13.90
2017-05-11T08:18:37.788Z,14.00
2017-05-11T08:21:06.871Z,14.10
2017-05-11T08:23:35.974Z,14.10
2017-05-11T08:26:05.086Z,14.10
2017-05-11T08:28:34.431Z,14.20
2017-05-11T08:31:03.486Z,14.20
2017-05-11T08:33:32.567Z,14.30
2017-05-11T08:36:01.972Z,14.30
2017-05-11T08:38:31.191Z,14.40
2017-05-11T08:41:00.283Z,14.50
2017-05-11T08:43:29.390Z,14.60
2017-05-11T08:45:58.486Z,14.60
2017-05-11T08:48:27.767Z,14.70
2017-05-11T08:50:56.864Z,14.80
2017-05-11T08:53:26.282Z,14.90
2017-05-11T08:55:55.351Z,15.00
2017-05-11T08:58:24.481Z,15.10
2017-05-11T09:00:53.577Z,15.30
2017-05-11T09:03:22.683Z,15.40
2017-05-11T09:05:51.935Z,15.40
2017-05-11T09:08:21.074Z,15.50
2017-05-11T09:10:50.271Z,15.50
2017-05-11T09:13:19.351Z,15.50
2017-05-11T09:15:48.447Z,15.50
2017-05-11T09:18:17.535Z,15.50
2017-05-11T09:20:46.612Z,15.60
2017-05-11T09:23:15.722Z,15.70
2017-05-11T09:25:44.842Z,15.80
2017-05-11T09:28:14.097Z,16.00
2017-05-11T09:30:43.143Z,16.10
2017-05-11T09:33:12.211Z,16.20
2017-05-11T09:35:41.331Z,16.20
2017-05-11T09:38:11.163Z,16.20
2017-05-11T09:40:40.391Z,16.20
2017-05-11T09:43:09.485Z,16.30
2017-05-11T09:45:38.562Z,16.40
2017-05-11T09:48:07.665Z,16.50
2017-05-11T09:50:36.761Z,16.70
2017-05-11T09:53:05.855Z,16.80
2017-05-11T09:55:34.922Z,16.80
2017-05-11T09:58:04.240Z,16.80
2017-05-11T10:00:34.039Z,16.90
2017-05-11T10:03:03.161Z,17.00
2017-05-11T10:05:32.239Z,17.00
2017-05-11T10:08:01.471Z,17.10
2017-05-11T10:10:30.691Z,17.20
2017-05-11T10:12:59.775Z,17.20
2017-05-11T10:15:28.939Z,17.20
2017-05-11T10:17:58.028Z,17.30
2017-05-11T10:20:27.086Z,17.40
2017-05-11T10:22:56.429Z,17.50
2017-05-11T10:25:26.308Z,17.40
2017-05-11T10:27:55.403Z,17.60
2017-05-11T10:30:25.240Z,17.50
2017-05-11T10:32:54.322Z,17.60
2017-05-11T10:35:23.399Z,17.80
2017-05-11T10:37:53.217Z,17.90
2017-05-11T10:40:23.369Z,18.00
2017-05-11T10:42:52.456Z,18.20
2017-05-11T10:45:21.565Z,18.30
2017-05-11T10:47:50.663Z,18.40
2017-05-11T10:50:19.751Z,18.40
2017-05-11T10:52:49.145Z,18.50
2017-05-11T10:55:18.215Z,18.50
2017-05-11T10:57:48.072Z,18.50
2017-05-11T11:00:17.174Z,18.60
2017-05-11T11:02:46.283Z,18.70
2017-05-11T11:05:15.635Z,18.70
2017-05-11T11:07:44.733Z,18.80
2017-05-11T11:10:13.795Z,18.80
2017-05-11T11:12:42.993Z,18.90
2017-05-11T11:15:12.818Z,18.80
2017-05-11T11:17:42.646Z,18.90
2017-05-11T11:20:11.764Z,19.00
2017-05-11T11:22:40.880Z,19.00
2017-05-11T11:25:10.091Z,19.10
2017-05-11T11:27:39.163Z,19.10
2017-05-11T11:30:08.266Z,19.00
2017-05-11T11:32:37.367Z,19.00
2017-05-11T11:35:06.464Z,19.00
2017-05-11T11:37:36.379Z,19.00
2017-05-11T11:40:05.443Z,19.10
2017-05-11T11:42:34.645Z,19.30
2017-05-11T11:45:03.739Z,19.30
2017-05-11T11:47:32.831Z,19.40
2017-05-11T11:50:01.971Z,19.40
2017-05-11T11:52:31.807Z,19.40
2017-05-11T11:55:01.110Z,19.50
2017-05-11T11:57:30.209Z,19.50
2017-05-11T11:59:59.282Z,19.60
2017-05-11T12:02:29.120Z,19.60
2017-05-11T12:04:58.247Z,19.60
2017-05-11T12:07:27.368Z,19.70
2017-05-11T12:09:57.190Z,19.70
2017-05-11T12:12:27.490Z,19.80
2017-05-11T12:14:56.585Z,19.90
2017-05-11T12:17:26.468Z,19.90
2017-05-11T12:19:56.008Z,20.10
2017-05-11T12:22:25.420Z,20.10
2017-05-11T12:27:29.916Z,20.20
2017-05-11T12:29:58.996Z,20.30
2017-05-11T12:32:28.794Z,20.30
2017-05-11T12:34:57.891Z,20.40
2017-05-11T12:37:26.982Z,20.60
2017-05-11T12:39:56.498Z,20.70
2017-05-11T12:42:25.635Z,20.70
2017-05-11T12:44:54.740Z,20.80
2017-05-11T12:47:23.913Z,20.80
2017-05-11T12:49:52.995Z,20.80
2017-05-11T12:52:22.408Z,20.90
2017-05-11T12:54:51.480Z,20.90
2017-05-11T12:57:21.407Z,20.90
2017-05-11T12:59:50.505Z,21.00
2017-05-11T13:02:19.605Z,21.10
2017-05-11T13:04:49.034Z,21.20
2017-05-11T13:07:18.855Z,21.20
2017-05-11T13:09:48.695Z,21.30
2017-05-11T13:12:17.795Z,21.40
2017-05-11T13:14:46.875Z,21.40
2017-05-11T13:17:16.364Z,21.50
2017-05-11T13:19:45.427Z,21.50
2017-05-11T13:22:15.399Z,21.50
2017-05-11T13:24:44.527Z,21.70
2017-05-11T13:27:13.603Z,21.80
2017-05-11T13:29:42.688Z,21.90
2017-05-11T13:32:11.798Z,21.90
2017-05-11T13:34:41.027Z,22.00
2017-05-11T13:37:10.081Z,22.00
2017-05-11T13:39:39.159Z,22.00
2017-05-11T13:42:08.282Z,22.10
2017-05-11T13:44:37.355Z,22.10
2017-05-11T13:47:06.580Z,22.30
2017-05-11T13:49:35.667Z,22.50
2017-05-11T13:52:04.863Z,22.50
2017-05-11T13:54:33.967Z,22.40
2017-05-11T13:57:03.148Z,22.40
2017-05-11T13:59:32.413Z,22.40
2017-05-11T14:02:02.684Z,22.40
2017-05-11T14:04:31.767Z,22.20
2017-05-11T14:07:00.851Z,22.20
2017-05-11T14:09:29.953Z,22.20
2017-05-11T14:11:59.196Z,22.30
2017-05-11T14:14:28.399Z,22.20
2017-05-11T14:16:57.453Z,22.20
2017-05-11T14:19:26.534Z,22.20
2017-05-11T14:21:55.615Z,22.30
2017-05-11T14:24:24.707Z,22.50
2017-05-11T14:26:53.792Z,22.60
2017-05-11T14:29:22.880Z,22.70
2017-05-11T14:31:52.005Z,22.70
2017-05-11T14:34:21.527Z,22.90
2017-05-11T14:36:50.612Z,23.40
2017-05-11T14:39:19.706Z,23.60
2017-05-11T14:41:48.803Z,23.80
2017-05-11T14:44:17.921Z,23.90
2017-05-11T14:46:47.112Z,23.90
2017-05-11T14:49:16.187Z,23.80
2017-05-11T14:51:45.376Z,23.80
2017-05-11T14:54:14.587Z,23.60
2017-05-11T14:56:43.671Z,23.60
2017-05-11T14:59:12.737Z,23.60
2017-05-11T15:01:41.855Z,23.60
2017-05-11T15:04:10.928Z,23.40
2017-05-11T15:06:40.167Z,23.40
2017-05-11T15:09:09.226Z,23.30
2017-05-11T15:11:38.302Z,23.30
2017-05-11T15:14:08.138Z,23.30
2017-05-11T15:16:37.954Z,23.30
2017-05-11T15:19:07.403Z,23.30
2017-05-11T15:21:36.483Z,23.50
2017-05-11T15:24:05.696Z,24.20
2017-05-11T15:26:34.827Z,24.90
2017-05-11T15:29:03.952Z,25.70
2017-05-11T15:31:33.063Z,26.40
2017-05-11T15:34:02.159Z,26.60
2017-05-11T15:36:31.647Z,26.90
2017-05-11T15:39:00.707Z,27.10
2017-05-11T15:41:29.976Z,27.60
2017-05-11T15:43:59.155Z,27.20
2017-05-11T15:46:28.240Z,26.40
2017-05-11T15:48:57.321Z,25.90
2017-05-11T15:51:26.418Z,25.20
2017-05-11T15:53:55.495Z,24.90
2017-05-11T15:56:24.666Z,24.60
2017-05-11T15:58:53.767Z,24.30
2017-05-11T16:01:22.854Z,24.10
2017-05-11T16:03:51.929Z,23.80
2017-05-11T16:06:21.151Z,23.60
2017-05-11T16:08:50.223Z,23.50
2017-05-11T16:11:19.307Z,23.40
2017-05-11T16:13:48.519Z,23.10
2017-05-11T16:16:17.735Z,23.00
2017-05-11T16:18:47.585Z,23.00
2017-05-11T16:21:16.787Z,23.20
2017-05-11T16:23:45.959Z,23.20
2017-05-11T16:26:15.039Z,23.40
2017-05-11T16:28:44.911Z,23.50
2017-05-11T16:31:13.959Z,23.70
2017-05-11T16:33:43.479Z,24.30
2017-05-11T16:36:12.541Z,24.60
2017-05-11T16:38:42.526Z,24.70
2017-05-11T16:41:11.621Z,24.90
2017-05-11T16:43:40.691Z,24.90
2017-05-11T16:46:09.886Z,24.90
2017-05-11T16:48:38.946Z,24.80
2017-05-11T16:51:08.791Z,24.70
2017-05-11T16:53:37.847Z,24.60
2017-05-11T16:56:07.207Z,24.50
2017-05-11T16:58:36.258Z,24.40
2017-05-11T17:01:06.061Z,24.20
2017-05-11T17:03:35.898Z,24.10
2017-05-11T17:06:04.971Z,24.00
2017-05-11T17:08:34.071Z,24.50
2017-05-11T17:11:03.871Z,25.30
2017-05-11T17:13:33.250Z,26.20
2017-05-11T17:16:02.316Z,26.80
2017-05-11T17:18:31.374Z,27.00
2017-05-11T17:21:00.458Z,27.10
2017-05-11T17:23:30.396Z,27.20
2017-05-11T17:25:59.482Z,27.00
2017-05-11T17:28:31.620Z,26.80
2017-05-11T17:31:03.515Z,26.60
2017-05-11T17:33:32.587Z,26.30
2017-05-11T17:36:01.687Z,25.80
2017-05-11T17:38:30.765Z,25.10
2017-05-11T17:41:00.204Z,24.80
2017-05-11T17:43:29.306Z,24.40
2017-05-11T17:45:58.380Z,23.90
2017-05-11T17:48:27.483Z,23.50
2017-05-11T17:50:58.097Z,23.00
2017-05-11T17:53:28.971Z,22.60
2017-05-11T17:55:58.247Z,22.30
2017-05-11T17:58:27.501Z,22.00
2017-05-11T18:00:57.722Z,21.80
2017-05-11T18:03:27.194Z,21.60
2017-05-11T18:05:56.698Z,21.50
2017-05-11T18:08:25.795Z,21.40
2017-05-11T18:10:54.868Z,21.20
2017-05-11T18:16:00.100Z,20.90
2017-05-11T18:18:29.926Z,20.80
2017-05-11T18:20:59.000Z,20.80
2017-05-11T18:23:28.201Z,20.70
2017-05-11T18:25:57.998Z,20.50
2017-05-11T18:28:27.840Z,20.50
2017-05-11T18:30:56.951Z,20.50
2017-05-11T18:33:26.027Z,20.40
2017-05-11T18:35:55.963Z,20.30
2017-05-11T18:38:25.050Z,20.30
2017-05-11T18:40:54.118Z,20.20
2017-05-11T18:43:23.968Z,20.10
2017-05-11T18:45:52.995Z,20.10
2017-05-11T18:48:22.194Z,20.00
2017-05-11T18:50:51.255Z,20.00
2017-05-11T18:53:20.325Z,19.90
2017-05-11T18:55:49.451Z,19.90
2017-05-11T18:58:18.520Z,20.00
2017-05-11T19:00:47.607Z,19.90
2017-05-11T19:03:16.680Z,19.90
2017-05-11T19:05:45.859Z,19.90
2017-05-11T19:08:14.912Z,19.80
2017-05-11T19:10:43.962Z,19.80
2017-05-11T19:13:13.063Z,19.70
2017-05-11T19:15:42.882Z,19.60
2017-05-11T19:18:11.983Z,19.60
2017-05-11T19:20:41.055Z,19.70
2017-05-11T19:23:10.175Z,19.60
2017-05-11T19:25:39.975Z,19.50
2017-05-11T19:28:09.909Z,19.50
2017-05-11T19:30:39.019Z,19.60
2017-05-11T19:33:08.078Z,19.60
2017-05-11T19:35:37.907Z,19.50
2017-05-11T19:38:06.964Z,19.60
2017-05-11T19:40:36.047Z,19.50
2017-05-11T19:43:05.108Z,19.50
2017-05-11T19:45:34.495Z,19.60
2017-05-11T19:48:03.556Z,19.50
2017-05-11T19:50:32.613Z,19.50
2017-05-11T19:53:01.704Z,19.50
2017-05-11T19:55:30.917Z,19.50
2017-05-11T19:58:00.102Z,19.40
2017-05-11T20:00:29.179Z,19.40
2017-05-11T20:02:58.252Z,19.40
2017-05-11T20:05:27.338Z,19.40
2017-05-11T20:07:56.410Z,19.40
2017-05-11T20:10:26.240Z,19.30
2017-05-11T20:12:55.307Z,19.30
2017-05-11T20:15:24.507Z,19.30
2017-05-11T20:17:53.561Z,19.30
2017-05-11T20:20:22.642Z,19.30
2017-05-11T20:22:51.735Z,19.20
2017-05-11T20:25:20.803Z,19.20
2017-05-11T20:27:50.766Z,19.10
2017-05-11T20:30:19.904Z,19.10
2017-05-11T20:32:48.994Z,19.10
2017-05-11T20:35:18.067Z,19.00
2017-05-11T20:37:47.127Z,18.90
2017-05-11T20:40:16.360Z,18.90
2017-05-11T20:42:45.431Z,18.80
2017-05-11T20:45:14.630Z,18.70
2017-05-11T20:47:43.685Z,18.60
2017-05-11T20:50:12.803Z,18.50
2017-05-11T20:52:41.879Z,18.50
2017-05-11T20:55:11.691Z,18.40
2017-05-11T20:57:40.846Z,18.40
2017-05-11T21:00:09.915Z,18.40
2017-05-11T21:02:39.092Z,18.40
2017-05-11T21:05:08.151Z,18.30
2017-05-11T21:07:37.956Z,18.20
2017-05-11T21:10:07.035Z,18.20
2017-05-11T21:12:36.097Z,18.20
2017-05-11T21:15:05.183Z,18.10
2017-05-11T21:17:34.249Z,18.10
2017-05-11T21:20:04.398Z,18.00
2017-05-11T21:22:34.166Z,17.90
2017-05-11T21:25:03.995Z,17.90
2017-05-11T21:27:33.822Z,17.90
2017-05-11T21:30:03.622Z,17.90
2017-05-11T21:32:32.802Z,17.90
2017-05-11T21:35:01.866Z,17.90
2017-05-11T21:37:30.934Z,17.80
2017-05-11T21:40:00.139Z,17.80
2017-05-11T21:42:29.202Z,17.80
2017-05-11T21:44:58.299Z,17.80
2017-05-11T21:47:27.931Z,17.70
2017-05-11T21:49:57.117Z,17.70
2017-05-11T21:52:26.176Z,17.70
2017-05-11T21:54:55.233Z,17.60
2017-05-11T21:57:24.311Z,17.50
2017-05-11T21:59:53.394Z,17.50
2017-05-11T22:02:22.469Z,17.40
2017-05-11T22:04:52.266Z,17.30
2017-05-11T22:07:22.194Z,17.30
2017-05-11T22:09:52.004Z,17.30
2017-05-11T22:12:21.826Z,17.30
2017-05-11T22:14:50.961Z,17.40
2017-05-11T22:17:19.999Z,17.40
2017-05-11T22:19:49.935Z,17.40
2017-05-11T22:22:19.023Z,17.40
2017-05-11T22:24:48.091Z,17.40
2017-05-11T22:27:17.927Z,17.40
2017-05-11T22:29:46.999Z,17.40
2017-05-11T22:32:16.824Z,17.40
2017-05-11T22:34:45.928Z,17.40
2017-05-11T22:37:15.022Z,17.40
2017-05-11T22:39:44.104Z,17.30
2017-05-11T22:42:13.927Z,17.20
2017-05-11T22:44:43.724Z,17.30
2017-05-11T22:47:12.899Z,17.30
2017-05-11T22:49:41.948Z,17.20
2017-05-11T22:52:11.041Z,17.20
2017-05-11T22:54:40.128Z,17.20
2017-05-11T22:57:09.210Z,17.20
2017-05-11T22:59:39.144Z,17.10
2017-05-11T23:02:08.218Z,17.10
2017-05-11T23:04:38.007Z,17.00
2017-05-11T23:07:07.115Z,17.10
2017-05-11T23:09:36.919Z,17.00
2017-05-11T23:12:05.996Z,17.00
2017-05-11T23:14:35.061Z,16.90
2017-05-11T23:17:04.177Z,16.90
2017-05-11T23:19:33.222Z,16.80
2017-05-11T23:22:03.139Z,16.70
2017-05-11T23:24:32.921Z,16.70
2017-05-11T23:27:02.743Z,16.60
2017-05-11T23:29:32.567Z,16.60
2017-05-11T23:32:02.363Z,16.50
2017-05-11T23:34:32.190Z,16.50
2017-05-11T23:37:01.267Z,16.50
2017-05-11T23:39:31.078Z,16.50
2017-05-11T23:42:00.138Z,16.50
2017-05-11T23:44:29.213Z,16.50
2017-05-11T23:46:58.258Z,16.50
2017-05-11T23:49:28.296Z,16.50
2017-05-11T23:51:57.359Z,16.50
2017-05-11T23:54:26.444Z,16.50
2017-05-11T23:56:55.530Z,16.40
2017-05-11T23:59:24.599Z,16.30
